createdAt,value
2019-05-11T00:00:55.262Z,66.30
2019-05-11T00:03:26.750Z,66.42
2019-05-11T00:05:58.069Z,66.46
2019-05-11T00:08:30.633Z,66.74
2019-05-11T00:11:02.023Z,66.80
2019-05-11T00:13:33.473Z,66.42
2019-05-11T00:16:06.391Z,66.32
2019-05-11T00:18:37.869Z,66.52
2019-05-11T00:21:09.244Z,66.83
2019-05-11T00:23:41.160Z,67.39
2019-05-11T00:26:12.555Z,67.99
2019-05-11T00:28:45.463Z,67.65
2019-05-11T00:31:17.186Z,67.58
2019-05-11T00:33:48.593Z,67.79
2019-05-11T00:36:19.974Z,67.66
2019-05-11T00:38:53.420Z,67.83
2019-05-11T00:41:26.452Z,67.85
2019-05-11T00:43:57.851Z,68.19
2019-05-11T00:46:29.208Z,68.49
2019-05-11T00:49:00.767Z,68.96
2019-05-11T00:51:32.226Z,68.83
2019-05-11T00:54:03.620Z,69.42
2019-05-11T00:56:34.916Z,69.59
2019-05-11T00:59:20.614Z,69.16
2019-05-11T01:01:39.914Z,69.41
2019-05-11T01:04:12.963Z,69.53
2019-05-11T01:06:44.271Z,69.72
2019-05-11T01:09:16.576Z,69.64
2019-05-11T01:11:47.943Z,69.95
2019-05-11T01:14:19.293Z,70.26
2019-05-11T01:16:50.654Z,70.58
2019-05-11T01:19:21.952Z,70.59
2019-05-11T01:21:53.395Z,70.50
2019-05-11T01:24:25.739Z,70.56
2019-05-11T01:26:59.411Z,70.57
2019-05-11T01:29:30.822Z,70.60
2019-05-11T01:32:04.562Z,70.80
2019-05-11T01:34:36.005Z,71.04
2019-05-11T01:37:07.379Z,71.21
2019-05-11T01:39:38.857Z,71.95
2019-05-11T01:42:10.207Z,72.33
2019-05-11T01:44:42.602Z,73.11
2019-05-11T01:47:13.932Z,73.33
2019-05-11T01:49:45.373Z,73.96
2019-05-11T01:52:16.831Z,74.12
2019-05-11T01:54:49.168Z,74.05
2019-05-11T01:57:20.467Z,74.59
2019-05-11T01:59:51.803Z,74.45
2019-05-11T02:02:23.195Z,74.62
2019-05-11T02:05:13.578Z,75.18
2019-05-11T02:07:44.984Z,75.40
2019-05-11T02:10:16.439Z,75.54
2019-05-11T02:12:47.931Z,75.59
2019-05-11T02:15:24.425Z,76.45
2019-05-11T02:17:55.758Z,76.33
2019-05-11T02:20:27.241Z,76.41
2019-05-11T02:22:58.712Z,76.42
2019-05-11T02:25:30.409Z,76.12
2019-05-11T02:28:01.811Z,76.14
2019-05-11T02:30:33.314Z,76.33
2019-05-11T02:33:06.091Z,75.98
2019-05-11T02:35:43.401Z,75.86
2019-05-11T02:38:14.676Z,76.02
2019-05-11T02:40:46.131Z,76.16
2019-05-11T02:43:17.457Z,75.95
2019-05-11T02:45:52.621Z,75.66
2019-05-11T02:48:23.973Z,75.76
2019-05-11T02:50:56.988Z,75.60
2019-05-11T02:53:30.545Z,75.61
2019-05-11T02:56:05.678Z,75.58
2019-05-11T02:58:38.081Z,75.64
2019-05-11T03:01:09.449Z,76.15
2019-05-11T03:03:41.933Z,76.54
2019-05-11T03:06:16.241Z,76.70
2019-05-11T03:08:47.644Z,76.45
2019-05-11T03:11:19.120Z,76.42
2019-05-11T03:13:50.673Z,76.29
2019-05-11T03:16:24.059Z,76.19
2019-05-11T03:18:55.508Z,76.18
2019-05-11T03:21:26.950Z,76.06
2019-05-11T03:23:58.448Z,76.06
2019-05-11T03:26:31.436Z,75.82
2019-05-11T03:29:02.889Z,75.90
2019-05-11T03:31:34.317Z,76.20
2019-05-11T03:34:07.805Z,76.40
2019-05-11T03:36:40.258Z,76.50
2019-05-11T03:39:11.856Z,76.68
2019-05-11T03:41:43.262Z,76.61
2019-05-11T03:44:14.630Z,76.77
2019-05-11T03:46:46.059Z,76.96
2019-05-11T03:49:17.497Z,76.88
2019-05-11T03:51:48.854Z,76.60
2019-05-11T03:54:21.793Z,76.60
2019-05-11T03:56:53.186Z,76.62
2019-05-11T03:59:24.487Z,76.32
2019-05-11T04:01:55.976Z,76.08
2019-05-11T04:04:27.403Z,76.00
2019-05-11T04:07:00.725Z,75.65
2019-05-11T04:09:32.298Z,75.53
2019-05-11T04:12:03.735Z,75.04
2019-05-11T04:14:35.200Z,74.48
2019-05-11T04:17:08.403Z,74.08
2019-05-11T04:19:40.963Z,73.52
2019-05-11T04:22:14.057Z,73.23
2019-05-11T04:24:46.953Z,73.22
2019-05-11T04:27:19.597Z,73.14
2019-05-11T04:29:51.218Z,72.51
2019-05-11T04:32:22.537Z,72.03
2019-05-11T04:34:53.825Z,71.91
2019-05-11T04:37:35.951Z,71.71
2019-05-11T04:40:09.733Z,71.78
2019-05-11T04:42:54.480Z,71.44
2019-05-11T04:45:17.511Z,71.11
2019-05-11T04:47:48.904Z,70.78
2019-05-11T04:50:20.273Z,70.74
2019-05-11T04:52:51.636Z,70.85
2019-05-11T04:55:23.025Z,70.68
2019-05-11T04:57:59.206Z,69.76
2019-05-11T05:00:30.656Z,69.70
2019-05-11T05:03:02.139Z,69.54
2019-05-11T05:05:33.688Z,69.44
2019-05-11T05:08:09.539Z,68.95
2019-05-11T05:10:38.140Z,68.37
2019-05-11T05:13:10.987Z,67.18
2019-05-11T05:15:44.878Z,66.26
2019-05-11T05:18:19.569Z,66.87
2019-05-11T05:20:50.914Z,67.11
2019-05-11T05:23:25.610Z,67.38
2019-05-11T05:25:57.017Z,67.00
2019-05-11T05:28:29.665Z,66.52
2019-05-11T05:31:01.202Z,66.16
2019-05-11T05:33:32.597Z,65.92
2019-05-11T05:36:03.966Z,65.62
2019-05-11T05:38:37.095Z,65.89
2019-05-11T05:41:08.575Z,65.34
2019-05-11T05:43:42.186Z,65.82
2019-05-11T05:46:13.726Z,65.65
2019-05-11T05:48:48.826Z,64.92
2019-05-11T05:51:23.240Z,64.67
2019-05-11T05:53:54.587Z,62.86
2019-05-11T05:56:25.977Z,63.21
2019-05-11T05:58:57.375Z,63.68
2019-05-11T06:01:28.818Z,62.65
2019-05-11T06:04:00.149Z,62.59
2019-05-11T06:06:31.468Z,62.79
2019-05-11T06:09:04.545Z,62.58
2019-05-11T06:11:36.153Z,62.56
2019-05-11T06:14:07.527Z,61.76
2019-05-11T06:16:38.919Z,60.14
2019-05-11T06:19:29.811Z,60.21
2019-05-11T06:22:01.191Z,59.81
2019-05-11T06:24:34.029Z,58.64
2019-05-11T06:27:05.513Z,58.51
2019-05-11T06:29:37.311Z,58.90
2019-05-11T06:32:10.141Z,58.42
2019-05-11T06:34:41.706Z,58.13
2019-05-11T06:37:13.105Z,55.77
2019-05-11T06:39:44.495Z,55.75
2019-05-11T06:42:15.959Z,55.60
2019-05-11T06:44:47.394Z,55.32
2019-05-11T06:47:18.753Z,55.76
2019-05-11T06:49:51.430Z,55.31
2019-05-11T06:52:22.817Z,55.15
2019-05-11T06:54:54.232Z,55.48
2019-05-11T06:57:25.666Z,55.28
2019-05-11T06:59:57.063Z,56.47
2019-05-11T07:02:29.706Z,56.28
2019-05-11T07:05:02.686Z,56.36
2019-05-11T07:07:47.202Z,55.54
2019-05-11T07:10:08.858Z,54.82
2019-05-11T07:12:40.343Z,54.16
2019-05-11T07:15:13.073Z,53.80
2019-05-11T07:17:44.646Z,54.81
2019-05-11T07:20:17.760Z,54.09
2019-05-11T07:22:50.132Z,54.22
2019-05-11T07:25:22.929Z,53.50
2019-05-11T07:27:54.505Z,53.76
2019-05-11T07:30:25.765Z,52.95
2019-05-11T07:32:58.148Z,52.58
2019-05-11T07:35:30.225Z,52.04
2019-05-11T07:38:01.640Z,52.69
2019-05-11T07:40:33.019Z,52.74
2019-05-11T07:43:09.204Z,53.28
2019-05-11T07:45:39.279Z,53.17
2019-05-11T07:48:10.633Z,52.21
2019-05-11T07:50:42.027Z,51.73
2019-05-11T07:53:13.487Z,52.33
2019-05-11T07:55:45.342Z,51.84
2019-05-11T07:58:20.355Z,50.76
2019-05-11T08:00:52.799Z,50.51
2019-05-11T08:03:28.355Z,49.94
2019-05-11T08:06:02.915Z,49.50
2019-05-11T08:08:35.346Z,49.72
2019-05-11T08:11:08.154Z,49.96
2019-05-11T08:13:39.873Z,49.82
2019-05-11T08:16:12.879Z,49.04
2019-05-11T08:18:47.874Z,48.74
2019-05-11T08:21:18.361Z,46.86
2019-05-11T08:23:52.240Z,46.14
2019-05-11T08:26:23.795Z,45.38
2019-05-11T08:28:59.999Z,45.33
2019-05-11T08:31:31.389Z,46.29
2019-05-11T08:34:09.075Z,46.14
2019-05-11T08:36:41.212Z,45.92
2019-05-11T08:39:19.936Z,45.44
2019-05-11T08:41:51.395Z,45.03
2019-05-11T08:44:24.045Z,44.89
2019-05-11T08:46:58.187Z,45.66
2019-05-11T08:49:30.603Z,45.58
2019-05-11T08:52:02.003Z,45.79
2019-05-11T08:54:33.433Z,45.66
2019-05-11T08:57:04.951Z,45.78
2019-05-11T08:59:38.235Z,45.86
2019-05-11T09:02:09.815Z,46.26
2019-05-11T09:04:42.016Z,46.18
2019-05-11T09:07:14.639Z,46.61
2019-05-11T09:09:48.384Z,45.96
2019-05-11T09:12:22.613Z,46.77
2019-05-11T09:14:54.308Z,47.41
2019-05-11T09:17:25.769Z,47.44
2019-05-11T09:19:58.267Z,48.16
2019-05-11T09:22:29.857Z,47.29
2019-05-11T09:25:01.265Z,47.75
2019-05-11T09:27:32.758Z,48.41
2019-05-11T09:30:08.300Z,49.06
2019-05-11T09:32:39.443Z,49.60
2019-05-11T09:35:10.973Z,49.90
2019-05-11T09:37:43.994Z,50.15
2019-05-11T09:40:19.823Z,50.98
2019-05-11T09:42:51.305Z,51.30
2019-05-11T09:45:22.758Z,51.03
2019-05-11T09:47:54.221Z,50.96
2019-05-11T09:50:28.525Z,50.85
2019-05-11T09:52:59.998Z,51.20
2019-05-11T09:55:33.685Z,50.99
2019-05-11T09:58:05.085Z,51.51
2019-05-11T10:00:38.755Z,51.94
2019-05-11T10:03:09.774Z,51.80
2019-05-11T10:05:42.729Z,52.19
2019-05-11T10:08:15.650Z,52.79
2019-05-11T10:10:48.792Z,51.79
2019-05-11T10:13:20.402Z,52.03
2019-05-11T10:16:03.791Z,52.02
2019-05-11T10:18:24.945Z,51.79
2019-05-11T10:20:58.811Z,52.19
2019-05-11T10:23:30.264Z,52.43
2019-05-11T10:26:02.829Z,52.02
2019-05-11T10:28:34.219Z,51.95
2019-05-11T10:31:08.681Z,52.93
2019-05-11T10:33:40.291Z,53.75
2019-05-11T10:36:11.710Z,54.31
2019-05-11T10:38:43.108Z,54.76
2019-05-11T10:41:18.015Z,54.81
2019-05-11T10:43:49.257Z,53.84
2019-05-11T10:46:23.455Z,54.27
2019-05-11T10:48:54.215Z,53.38
2019-05-11T10:51:28.579Z,52.97
2019-05-11T10:53:59.803Z,52.79
2019-05-11T10:56:32.331Z,53.49
2019-05-11T10:59:03.695Z,53.15
2019-05-11T11:01:38.274Z,52.97
2019-05-11T11:04:09.639Z,53.06
2019-05-11T11:06:41.130Z,53.40
2019-05-11T11:09:12.440Z,53.94
2019-05-11T11:11:44.810Z,53.74
2019-05-11T11:14:18.168Z,53.60
2019-05-11T11:16:49.720Z,53.59
2019-05-11T11:19:22.688Z,53.06
2019-05-11T11:21:54.166Z,52.94
2019-05-11T11:24:25.565Z,53.11
2019-05-11T11:26:58.065Z,52.58
2019-05-11T11:29:29.432Z,53.34
2019-05-11T11:32:00.881Z,53.92
2019-05-11T11:34:38.384Z,54.16
2019-05-11T11:37:09.966Z,54.25
2019-05-11T11:39:41.594Z,54.49
2019-05-11T11:42:13.027Z,54.83
2019-05-11T11:44:44.514Z,55.56
2019-05-11T11:47:20.952Z,55.43
2019-05-11T11:49:49.541Z,55.73
2019-05-11T11:52:24.039Z,55.13
2019-05-11T11:54:55.610Z,53.55
2019-05-11T11:57:28.378Z,53.66
2019-05-11T11:59:59.815Z,52.93
2019-05-11T12:02:31.303Z,53.59
2019-05-11T12:05:02.626Z,53.70
2019-05-11T12:07:34.174Z,54.21
2019-05-11T12:10:07.789Z,54.54
2019-05-11T12:12:39.629Z,55.15
2019-05-11T12:15:11.122Z,55.75
2019-05-11T12:17:44.953Z,56.37
2019-05-11T12:20:19.251Z,55.74
2019-05-11T12:22:50.756Z,57.71
2019-05-11T12:25:22.172Z,60.59
2019-05-11T12:27:53.651Z,62.42
2019-05-11T12:30:25.219Z,63.83
2019-05-11T12:32:57.697Z,65.43
2019-05-11T12:35:29.221Z,65.74
2019-05-11T12:38:00.793Z,66.16
2019-05-11T12:40:32.338Z,65.91
2019-05-11T12:43:03.855Z,66.17
2019-05-11T12:45:37.520Z,65.52
2019-05-11T12:48:09.097Z,65.17
2019-05-11T12:50:40.472Z,64.88
2019-05-11T12:53:13.543Z,64.65
2019-05-11T12:55:48.419Z,64.44
2019-05-11T12:58:20.614Z,64.44
2019-05-11T13:00:52.782Z,64.24
2019-05-11T13:03:25.241Z,64.83
2019-05-11T13:05:58.967Z,65.53
2019-05-11T13:08:30.598Z,65.96
2019-05-11T13:11:07.868Z,65.82
2019-05-11T13:13:39.640Z,65.65
2019-05-11T13:16:11.182Z,66.84
2019-05-11T13:18:42.610Z,68.25
2019-05-11T13:21:21.204Z,68.75
2019-05-11T13:23:53.093Z,69.76
2019-05-11T13:26:24.347Z,70.67
2019-05-11T13:28:55.747Z,70.98
2019-05-11T13:31:31.984Z,71.70
2019-05-11T13:34:04.720Z,72.28
2019-05-11T13:36:38.221Z,72.83
2019-05-11T13:39:11.320Z,72.63
2019-05-11T13:41:42.852Z,72.39
2019-05-11T13:44:14.631Z,72.65
2019-05-11T13:46:48.098Z,73.70
2019-05-11T13:49:19.425Z,73.39
2019-05-11T13:51:51.796Z,73.37
2019-05-11T13:54:23.378Z,72.91
2019-05-11T13:56:57.559Z,72.50
2019-05-11T13:59:28.431Z,72.41
2019-05-11T14:01:59.828Z,72.45
2019-05-11T14:04:31.283Z,71.74
2019-05-11T14:07:02.717Z,71.27
2019-05-11T14:09:34.376Z,71.37
2019-05-11T14:12:10.105Z,71.75
2019-05-11T14:14:41.293Z,71.47
2019-05-11T14:17:12.834Z,71.37
2019-05-11T14:19:44.398Z,70.74
2019-05-11T14:22:25.426Z,70.87
2019-05-11T14:24:58.626Z,70.98
2019-05-11T14:27:30.159Z,71.41
2019-05-11T14:30:04.029Z,71.57
2019-05-11T14:32:40.170Z,71.21
2019-05-11T14:35:12.461Z,71.00
2019-05-11T14:37:43.955Z,71.06
2019-05-11T14:40:17.655Z,70.98
2019-05-11T14:42:52.021Z,70.49
2019-05-11T14:45:23.386Z,70.81
2019-05-11T14:47:54.988Z,70.62
2019-05-11T14:50:28.179Z,70.44
2019-05-11T14:53:00.578Z,70.22
2019-05-11T14:55:31.947Z,70.18
2019-05-11T14:58:03.478Z,69.30
2019-05-11T15:00:36.957Z,69.71
2019-05-11T15:03:09.145Z,69.10
2019-05-11T15:05:41.543Z,67.18
2019-05-11T15:08:13.187Z,65.88
2019-05-11T15:10:48.864Z,65.54
2019-05-11T15:13:19.840Z,65.70
2019-05-11T15:15:51.121Z,65.78
2019-05-11T15:18:35.281Z,66.00
2019-05-11T15:20:57.910Z,65.05
2019-05-11T15:23:32.281Z,64.96
2019-05-11T15:26:07.043Z,66.23
2019-05-11T15:28:37.985Z,66.52
2019-05-11T15:31:09.703Z,67.13
2019-05-11T15:33:42.004Z,67.04
2019-05-11T15:36:13.413Z,67.43
2019-05-11T15:38:44.800Z,68.00
2019-05-11T15:41:17.687Z,67.82
2019-05-11T15:43:50.914Z,68.33
2019-05-11T15:46:22.385Z,68.47
2019-05-11T15:49:02.097Z,68.33
2019-05-11T15:51:29.086Z,68.15
2019-05-11T15:54:00.257Z,67.86
2019-05-11T15:56:31.742Z,68.09
2019-05-11T15:59:03.100Z,68.01
2019-05-11T16:01:34.649Z,67.78
2019-05-11T16:04:09.101Z,67.67
2019-05-11T16:06:40.487Z,67.86
2019-05-11T16:09:11.904Z,68.67
2019-05-11T16:11:43.210Z,69.04
2019-05-11T16:14:15.601Z,68.81
2019-05-11T16:16:48.082Z,69.53
2019-05-11T16:19:19.482Z,70.10
2019-05-11T16:21:50.933Z,71.01
2019-05-11T16:24:25.099Z,71.18
2019-05-11T16:26:58.269Z,71.24
2019-05-11T16:29:30.190Z,71.36
2019-05-11T16:32:01.576Z,71.40
2019-05-11T16:34:32.985Z,71.74
2019-05-11T16:37:05.566Z,71.77
2019-05-11T16:39:38.467Z,72.23
2019-05-11T16:42:10.098Z,72.24
2019-05-11T16:44:45.344Z,72.31
2019-05-11T16:47:18.129Z,73.26
2019-05-11T16:49:49.900Z,73.06
2019-05-11T16:52:21.282Z,73.74
2019-05-11T16:54:52.782Z,73.68
2019-05-11T16:57:24.355Z,73.70
2019-05-11T16:59:58.356Z,73.74
2019-05-11T17:02:30.444Z,73.60
2019-05-11T17:05:01.973Z,74.08
2019-05-11T17:07:34.487Z,74.20
2019-05-11T17:10:08.533Z,74.90
2019-05-11T17:12:40.115Z,75.11
2019-05-11T17:15:14.239Z,75.71
2019-05-11T17:17:45.703Z,76.34
2019-05-11T17:20:18.711Z,76.30
2019-05-11T17:22:53.962Z,76.45
2019-05-11T17:25:25.111Z,77.06
2019-05-11T17:27:58.622Z,76.85
2019-05-11T17:30:30.803Z,76.64
2019-05-11T17:33:02.162Z,76.45
2019-05-11T17:35:37.126Z,76.27
2019-05-11T17:38:09.574Z,76.73
2019-05-11T17:40:41.087Z,76.86
2019-05-11T17:43:12.509Z,77.03
2019-05-11T17:45:47.918Z,77.53
2019-05-11T17:48:19.460Z,77.37
2019-05-11T17:50:50.896Z,77.50
2019-05-11T17:53:23.344Z,77.52
2019-05-11T17:55:54.605Z,77.60
2019-05-11T17:58:26.050Z,77.54
2019-05-11T18:00:58.806Z,77.40
2019-05-11T18:03:30.630Z,77.55
2019-05-11T18:06:02.169Z,77.28
2019-05-11T18:08:33.658Z,77.17
2019-05-11T18:11:05.115Z,76.98
2019-05-11T18:13:38.983Z,77.16
2019-05-11T18:16:11.666Z,76.84
2019-05-11T18:18:43.075Z,76.92
2019-05-11T18:21:15.558Z,76.67
2019-05-11T18:23:49.618Z,76.68
2019-05-11T18:26:22.175Z,76.86
2019-05-11T18:28:53.571Z,76.86
2019-05-11T18:31:24.916Z,76.71
2019-05-11T18:33:58.081Z,76.61
2019-05-11T18:36:30.805Z,76.61
2019-05-11T18:39:06.249Z,76.92
2019-05-11T18:41:39.333Z,76.99
2019-05-11T18:44:11.778Z,77.20
2019-05-11T18:46:43.148Z,77.17
2019-05-11T18:49:14.646Z,77.05
2019-05-11T18:51:48.244Z,77.20
2019-05-11T18:54:19.325Z,77.64
2019-05-11T18:56:50.744Z,77.63
2019-05-11T18:59:22.035Z,78.13
2019-05-11T19:01:53.494Z,78.03
2019-05-11T19:04:24.966Z,78.05
2019-05-11T19:06:56.497Z,78.17
2019-05-11T19:09:28.462Z,78.40
2019-05-11T19:12:00.049Z,78.47
2019-05-11T19:14:35.127Z,78.54
2019-05-11T19:17:07.712Z,78.69
2019-05-11T19:19:39.381Z,78.81
2019-05-11T19:22:10.730Z,78.58
2019-05-11T19:24:44.224Z,78.79
2019-05-11T19:27:18.417Z,78.72
2019-05-11T19:29:49.128Z,78.70
2019-05-11T19:32:20.564Z,78.86
2019-05-11T19:34:58.103Z,79.50
2019-05-11T19:37:29.676Z,79.74
2019-05-11T19:40:01.083Z,79.54
2019-05-11T19:42:32.492Z,79.78
2019-05-11T19:45:08.549Z,79.49
2019-05-11T19:47:39.954Z,79.53
2019-05-11T19:50:11.384Z,79.62
2019-05-11T19:52:42.846Z,79.27
2019-05-11T19:55:14.379Z,79.18
2019-05-11T19:57:48.019Z,79.07
2019-05-11T20:00:20.650Z,79.43
2019-05-11T20:02:52.214Z,79.27
2019-05-11T20:05:24.650Z,79.39
2019-05-11T20:07:58.197Z,79.33
2019-05-11T20:10:29.206Z,79.49
2019-05-11T20:13:00.813Z,79.44
2019-05-11T20:15:33.478Z,79.48
2019-05-11T20:18:05.060Z,78.99
2019-05-11T20:20:37.675Z,78.69
2019-05-11T20:23:09.180Z,78.34
2019-05-11T20:25:40.518Z,78.33
2019-05-11T20:28:11.808Z,78.45
2019-05-11T20:30:43.327Z,78.40
2019-05-11T20:33:14.694Z,78.38
2019-05-11T20:35:46.117Z,78.81
2019-05-11T20:38:19.521Z,79.25
2019-05-11T20:40:50.998Z,79.58
2019-05-11T20:43:22.554Z,80.02
2019-05-11T20:45:56.220Z,80.40
2019-05-11T20:48:27.822Z,81.15
2019-05-11T20:50:59.316Z,81.21
2019-05-11T20:53:32.230Z,81.38
2019-05-11T20:56:10.510Z,80.93
2019-05-11T20:58:58.790Z,80.70
2019-05-11T21:01:31.117Z,80.87
2019-05-11T21:04:02.593Z,80.64
2019-05-11T21:06:35.551Z,80.93
2019-05-11T21:09:07.822Z,80.80
2019-05-11T21:11:40.321Z,81.02
2019-05-11T21:14:12.126Z,81.31
2019-05-11T21:16:43.474Z,81.43
2019-05-11T21:19:15.011Z,81.51
2019-05-11T21:21:52.819Z,81.88
2019-05-11T21:24:19.521Z,81.90
2019-05-11T21:26:50.879Z,81.83
2019-05-11T21:29:22.134Z,82.01
2019-05-11T21:31:53.564Z,82.12
2019-05-11T21:34:27.916Z,82.01
2019-05-11T21:36:59.721Z,81.75
2019-05-11T21:39:31.109Z,81.73
2019-05-11T21:42:02.621Z,81.71
2019-05-11T21:44:35.613Z,81.38
2019-05-11T21:47:07.711Z,81.33
2019-05-11T21:49:39.350Z,81.55
2019-05-11T21:52:10.889Z,82.00
2019-05-11T21:54:43.378Z,81.92
2019-05-11T21:57:21.768Z,81.65
2019-05-11T21:59:53.338Z,81.76
2019-05-11T22:02:25.100Z,81.87
2019-05-11T22:04:58.597Z,81.96
2019-05-11T22:07:31.865Z,82.33
2019-05-11T22:10:04.706Z,82.23
2019-05-11T22:12:38.346Z,82.52
2019-05-11T22:15:10.684Z,82.69
2019-05-11T22:17:42.178Z,82.65
2019-05-11T22:20:13.729Z,82.30
2019-05-11T22:22:47.503Z,82.56
2019-05-11T22:25:18.572Z,82.53
2019-05-11T22:27:51.042Z,82.42
2019-05-11T22:30:22.465Z,82.23
2019-05-11T22:32:53.792Z,82.11
2019-05-11T22:35:25.270Z,82.05
2019-05-11T22:37:58.651Z,82.13
2019-05-11T22:40:31.520Z,82.30
2019-05-11T22:43:02.910Z,82.34
2019-05-11T22:45:34.413Z,82.31
2019-05-11T22:48:10.230Z,82.20
2019-05-11T22:50:43.694Z,82.37
2019-05-11T22:53:14.602Z,82.74
2019-05-11T22:55:45.965Z,82.82
2019-05-11T22:58:17.912Z,83.04
2019-05-11T23:00:49.431Z,83.46
2019-05-11T23:03:22.804Z,83.35
2019-05-11T23:05:53.866Z,83.66
2019-05-11T23:08:25.246Z,83.69
2019-05-11T23:10:56.633Z,83.69
2019-05-11T23:13:28.063Z,83.99
2019-05-11T23:15:59.620Z,83.63
2019-05-11T23:18:31.044Z,83.41
2019-05-11T23:21:02.513Z,83.68
2019-05-11T23:23:33.897Z,83.64
2019-05-11T23:26:05.395Z,83.31
2019-05-11T23:28:37.874Z,83.29
2019-05-11T23:31:09.492Z,83.17
2019-05-11T23:33:40.835Z,83.34
2019-05-11T23:36:12.273Z,83.51
2019-05-11T23:38:44.621Z,82.92
2019-05-11T23:41:24.114Z,82.84
2019-05-11T23:43:49.173Z,82.98
2019-05-11T23:46:20.670Z,82.83
2019-05-11T23:48:54.194Z,82.50
2019-05-11T23:51:28.313Z,82.62
2019-05-11T23:53:59.846Z,83.54
2019-05-11T23:56:31.338Z,83.99
2019-05-11T23:59:03.675Z,83.83
